createdAt,value
2023-01-28T00:00:49.965Z,98908.16
2023-01-28T00:03:18.813Z,98908.94
2023-01-28T00:05:45.298Z,98909.44
2023-01-28T00:08:14.801Z,98896.25
2023-01-28T00:10:43.042Z,98899.72
2023-01-28T00:13:14.318Z,98905.53
2023-01-28T00:15:40.823Z,98907.53
2023-01-28T00:18:07.451Z,98903.47
2023-01-28T00:20:35.320Z,98902.13
2023-01-28T00:23:01.963Z,98902.41
2023-01-28T00:25:28.443Z,98904.22
2023-01-28T00:27:55.265Z,98899.44
2023-01-28T00:30:21.962Z,98903.97
2023-01-28T00:32:48.486Z,98896.63
2023-01-28T00:35:15.812Z,98893.97
2023-01-28T00:37:45.621Z,98890.97
2023-01-28T00:40:12.578Z,98889.25
2023-01-28T00:42:39.095Z,98888.75
2023-01-28T00:45:05.929Z,98888.25
2023-01-28T00:47:32.470Z,98888.28
2023-01-28T00:49:58.963Z,98889.47
2023-01-28T00:52:25.960Z,98886.03
2023-01-28T00:54:54.452Z,98893.53
2023-01-28T00:57:20.941Z,98888.00
2023-01-28T00:59:47.485Z,98885.53
2023-01-28T01:02:14.127Z,98892.56
2023-01-28T01:04:40.916Z,98890.03
2023-01-28T01:07:07.571Z,98876.84
2023-01-28T01:09:34.171Z,98882.09
2023-01-28T01:12:00.796Z,98882.34
2023-01-28T01:14:27.322Z,98889.84
2023-01-28T01:16:53.854Z,98886.34
2023-01-28T01:19:20.344Z,98894.09
2023-01-28T01:21:50.547Z,98892.09
2023-01-28T01:24:17.379Z,98894.56
2023-01-28T01:26:43.938Z,98896.81
2023-01-28T01:29:10.416Z,98899.06
2023-01-28T01:31:36.985Z,98902.50
2023-01-28T01:34:03.803Z,98897.28
2023-01-28T01:36:31.181Z,98900.50
2023-01-28T01:39:00.271Z,98902.72
2023-01-28T01:41:34.649Z,98910.00
2023-01-28T01:44:03.310Z,98907.47
2023-01-28T01:46:45.858Z,98907.00
2023-01-28T01:49:26.340Z,98900.97
2023-01-28T01:52:02.494Z,98911.03
2023-01-28T01:54:30.065Z,98906.47
2023-01-28T01:56:57.897Z,98904.97
2023-01-28T01:59:28.222Z,98910.44
2023-01-28T02:01:55.227Z,98907.03
2023-01-28T02:04:34.859Z,98907.28
2023-01-28T02:07:01.928Z,98905.28
2023-01-28T02:09:30.413Z,98903.72
2023-01-28T02:12:00.231Z,98910.78
2023-01-28T02:14:31.417Z,98909.00
2023-01-28T02:17:00.177Z,98913.28
2023-01-28T02:19:32.579Z,98911.78
2023-01-28T02:22:10.783Z,98919.28
2023-01-28T02:24:54.277Z,98917.06
2023-01-28T02:27:27.138Z,98913.31
2023-01-28T02:30:07.968Z,98910.72
2023-01-28T02:32:42.801Z,98906.50
2023-01-28T02:35:33.199Z,98915.28
2023-01-28T02:38:04.540Z,98911.78
2023-01-28T02:40:54.852Z,98914.22
2023-01-28T02:43:46.078Z,98913.69
2023-01-28T02:46:55.169Z,98916.97
2023-01-28T02:49:30.535Z,98923.44
2023-01-28T02:52:06.130Z,98917.72
2023-01-28T02:54:49.844Z,98919.47
2023-01-28T02:57:43.050Z,98921.25
2023-01-28T03:00:23.568Z,98918.91
2023-01-28T03:03:02.637Z,98919.91
2023-01-28T03:05:32.900Z,98931.44
2023-01-28T03:07:59.744Z,98926.94
2023-01-28T03:10:27.361Z,98933.00
2023-01-28T03:13:14.026Z,98934.19
2023-01-28T03:16:06.927Z,98931.50
2023-01-28T03:19:03.867Z,98937.50
2023-01-28T03:21:57.786Z,98931.94
2023-01-28T03:24:44.994Z,98934.94
2023-01-28T03:27:51.818Z,98928.94
2023-01-28T03:30:41.707Z,98925.94
2023-01-28T03:33:34.075Z,98922.88
2023-01-28T03:36:20.441Z,98927.66
2023-01-28T03:38:48.679Z,98923.94
2023-01-28T03:41:24.898Z,98934.91
2023-01-28T03:43:56.079Z,98935.16
2023-01-28T03:46:22.883Z,98942.31
2023-01-28T03:48:49.404Z,98940.00
2023-01-28T03:51:16.584Z,98949.13
2023-01-28T03:53:43.171Z,98943.66
2023-01-28T03:56:18.468Z,98942.16
2023-01-28T03:58:56.576Z,98946.34
2023-01-28T04:01:24.174Z,98951.41
2023-01-28T04:03:51.023Z,98947.06
2023-01-28T04:06:23.234Z,98941.63
2023-01-28T04:08:59.508Z,98933.84
2023-01-28T04:11:40.473Z,98940.44
2023-01-28T04:14:08.362Z,98934.69
2023-01-28T04:16:44.998Z,98939.88
2023-01-28T04:19:15.281Z,98945.41
2023-01-28T04:21:42.605Z,98943.44
2023-01-28T04:24:09.453Z,98950.88
2023-01-28T04:26:36.101Z,98953.47
2023-01-28T04:29:03.231Z,98964.97
2023-01-28T04:31:33.163Z,98962.72
2023-01-28T04:34:17.323Z,98971.94
2023-01-28T04:37:04.086Z,98965.94
2023-01-28T04:39:43.618Z,98966.97
2023-01-28T04:42:19.742Z,98974.22
2023-01-28T04:45:00.362Z,98985.44
2023-01-28T04:47:39.159Z,98983.44
2023-01-28T04:50:30.876Z,98978.44
2023-01-28T04:53:07.492Z,98979.19
2023-01-28T04:56:06.519Z,98986.19
2023-01-28T04:58:34.790Z,98983.44
2023-01-28T05:01:05.458Z,98982.72
2023-01-28T05:03:34.714Z,98986.66
2023-01-28T05:06:05.221Z,98983.19
2023-01-28T05:08:46.364Z,98989.38
2023-01-28T05:11:14.840Z,98992.25
2023-01-28T05:13:41.839Z,98986.38
2023-01-28T05:16:10.713Z,98992.63
2023-01-28T05:18:38.360Z,98991.66
2023-01-28T05:21:10.388Z,98986.41
2023-01-28T05:23:38.853Z,98986.88
2023-01-28T05:26:05.592Z,98981.13
2023-01-28T05:28:33.907Z,98976.34
2023-01-28T05:31:07.686Z,98979.72
2023-01-28T05:33:34.458Z,98982.00
2023-01-28T05:36:05.213Z,98981.75
2023-01-28T05:38:31.759Z,98981.91
2023-01-28T05:40:58.417Z,98982.75
2023-01-28T05:43:25.046Z,98982.47
2023-01-28T05:46:18.351Z,98988.88
2023-01-28T05:49:12.199Z,98987.13
2023-01-28T05:52:17.098Z,98986.09
2023-01-28T05:54:44.686Z,98988.22
2023-01-28T05:57:11.799Z,98987.75
2023-01-28T05:59:38.453Z,98985.94
2023-01-28T06:02:05.109Z,98990.25
2023-01-28T06:04:31.680Z,98992.00
2023-01-28T06:06:58.969Z,98984.22
2023-01-28T06:09:26.429Z,98998.69
2023-01-28T06:11:53.354Z,99002.31
2023-01-28T06:14:20.030Z,99000.53
2023-01-28T06:17:05.119Z,99014.81
2023-01-28T06:19:47.533Z,99020.34
2023-01-28T06:22:14.063Z,99026.34
2023-01-28T06:24:41.343Z,99030.88
2023-01-28T06:27:07.941Z,99033.13
2023-01-28T06:29:34.581Z,99034.31
2023-01-28T06:32:01.149Z,99040.34
2023-01-28T06:34:27.926Z,99040.41
2023-01-28T06:36:54.433Z,99047.59
2023-01-28T06:39:24.253Z,99050.56
2023-01-28T06:41:50.822Z,99052.53
2023-01-28T06:44:17.337Z,99052.06
2023-01-28T06:46:43.994Z,99051.81
2023-01-28T06:49:11.735Z,99049.84
2023-01-28T06:51:38.212Z,99056.84
2023-01-28T06:54:04.991Z,99059.53
2023-01-28T06:56:31.556Z,99064.56
2023-01-28T06:58:58.076Z,99071.28
2023-01-28T07:01:24.733Z,99065.59
2023-01-28T07:03:51.471Z,99061.13
2023-01-28T07:06:18.174Z,99075.75
2023-01-28T07:08:44.685Z,99068.19
2023-01-28T07:11:11.190Z,99072.22
2023-01-28T07:13:37.772Z,99063.25
2023-01-28T07:16:04.522Z,99067.41
2023-01-28T07:18:33.441Z,99078.84
2023-01-28T07:20:59.920Z,99083.56
2023-01-28T07:23:28.244Z,99079.00
2023-01-28T07:25:55.527Z,99080.78
2023-01-28T07:28:22.047Z,99076.13
2023-01-28T07:30:53.673Z,99078.06
2023-01-28T07:33:20.536Z,99083.16
2023-01-28T07:35:47.771Z,99085.47
2023-01-28T07:38:14.472Z,99086.25
2023-01-28T07:40:42.547Z,99082.81
2023-01-28T07:43:09.373Z,99090.06
2023-01-28T07:45:40.790Z,99095.31
2023-01-28T07:48:08.561Z,99089.31
2023-01-28T07:50:36.981Z,99091.28
2023-01-28T07:53:08.625Z,99086.25
2023-01-28T07:55:38.344Z,99089.88
2023-01-28T07:58:08.005Z,99103.72
2023-01-28T08:00:36.752Z,99096.47
2023-01-28T08:03:15.231Z,99102.75
2023-01-28T08:05:45.389Z,99107.22
2023-01-28T08:08:12.255Z,99102.44
2023-01-28T08:10:39.038Z,99104.25
2023-01-28T08:13:06.294Z,99109.25
2023-01-28T08:15:35.155Z,99113.59
2023-01-28T08:18:02.635Z,99103.00
2023-01-28T08:20:29.399Z,99112.13
2023-01-28T08:23:17.822Z,99118.56
2023-01-28T08:25:45.247Z,99114.38
2023-01-28T08:28:12.151Z,99118.31
2023-01-28T08:30:41.308Z,99116.75
2023-01-28T08:33:10.017Z,99126.44
2023-01-28T08:35:37.031Z,99123.25
2023-01-28T08:38:04.599Z,99120.31
2023-01-28T08:40:31.325Z,99113.81
2023-01-28T08:42:58.105Z,99118.41
2023-01-28T08:45:28.030Z,99122.41
2023-01-28T08:47:56.866Z,99124.41
2023-01-28T08:50:25.466Z,99120.34
2023-01-28T08:53:04.959Z,99117.66
2023-01-28T08:55:31.549Z,99126.69
2023-01-28T08:57:58.734Z,99121.75
2023-01-28T09:00:28.526Z,99121.28
2023-01-28T09:02:56.296Z,99127.78
2023-01-28T09:05:26.892Z,99125.28
2023-01-28T09:07:53.485Z,99125.28
2023-01-28T09:10:24.063Z,99121.03
2023-01-28T09:12:51.630Z,99132.53
2023-01-28T09:15:18.273Z,99135.28
2023-01-28T09:17:44.943Z,99142.03
2023-01-28T09:20:12.827Z,99147.25
2023-01-28T09:22:39.966Z,99145.03
2023-01-28T09:25:07.732Z,99148.03
2023-01-28T09:27:34.293Z,99149.06
2023-01-28T09:30:00.802Z,99152.28
2023-01-28T09:32:27.335Z,99157.03
2023-01-28T09:34:53.840Z,99152.56
2023-01-28T09:37:20.409Z,99155.03
2023-01-28T09:39:46.885Z,99163.56
2023-01-28T09:42:35.815Z,99168.53
2023-01-28T09:45:07.522Z,99170.06
2023-01-28T09:47:40.527Z,99173.31
2023-01-28T09:50:11.387Z,99171.56
2023-01-28T09:52:40.140Z,99174.22
2023-01-28T09:55:15.623Z,99181.56
2023-01-28T09:57:46.734Z,99176.25
2023-01-28T10:00:15.962Z,99181.94
2023-01-28T10:02:48.622Z,99176.34
2023-01-28T10:05:15.026Z,99178.00
2023-01-28T10:08:01.386Z,99180.22
2023-01-28T10:11:03.472Z,99183.28
2023-01-28T10:13:45.106Z,99179.13
2023-01-28T10:16:38.759Z,99169.63
2023-01-28T10:19:11.250Z,99174.72
2023-01-28T10:21:49.718Z,99163.53
2023-01-28T10:24:28.521Z,99165.13
2023-01-28T10:26:56.854Z,99156.41
2023-01-28T10:29:27.509Z,99157.97
2023-01-28T10:31:56.363Z,99162.94
2023-01-28T10:34:23.346Z,99161.94
2023-01-28T10:36:50.272Z,99156.50
2023-01-28T10:39:18.502Z,99158.81
2023-01-28T10:41:56.550Z,99159.50
2023-01-28T10:44:36.167Z,99156.28
2023-01-28T10:47:10.830Z,99152.75
2023-01-28T10:49:42.629Z,99143.22
2023-01-28T10:52:15.280Z,99154.28
2023-01-28T10:54:41.885Z,99149.81
2023-01-28T10:57:13.059Z,99155.53
2023-01-28T10:59:42.800Z,99158.06
2023-01-28T11:02:36.863Z,99161.31
2023-01-28T11:05:21.424Z,99157.81
2023-01-28T11:07:49.886Z,99164.03
2023-01-28T11:10:32.042Z,99156.53
2023-01-28T11:13:00.818Z,99159.06
2023-01-28T11:15:29.181Z,99158.00
2023-01-28T11:17:58.817Z,99155.75
2023-01-28T11:20:27.369Z,99162.03
2023-01-28T11:22:54.681Z,99167.53
2023-01-28T11:25:33.864Z,99167.31
2023-01-28T11:28:02.188Z,99163.31
2023-01-28T11:30:32.542Z,99168.56
2023-01-28T11:33:18.001Z,99172.56
2023-01-28T11:35:54.630Z,99170.78
2023-01-28T11:38:23.664Z,99167.81
2023-01-28T11:40:55.376Z,99169.31
2023-01-28T11:43:23.581Z,99160.03
2023-01-28T11:46:04.050Z,99169.75
2023-01-28T11:48:44.752Z,99167.56
2023-01-28T11:51:45.601Z,99167.53
2023-01-28T11:54:27.021Z,99167.06
2023-01-28T11:56:56.540Z,99168.56
2023-01-28T11:59:46.351Z,99169.03
2023-01-28T12:02:49.871Z,99163.03
2023-01-28T12:05:52.456Z,99161.75
2023-01-28T12:08:36.292Z,99163.97
2023-01-28T12:11:45.288Z,99167.81
2023-01-28T12:14:28.586Z,99169.81
2023-01-28T12:17:00.990Z,99176.31
2023-01-28T12:19:27.668Z,99172.28
2023-01-28T12:22:18.656Z,99173.78
2023-01-28T12:25:14.283Z,99166.56
2023-01-28T12:27:51.641Z,99171.53
2023-01-28T12:30:29.196Z,99170.69
2023-01-28T12:33:34.505Z,99162.22
2023-01-28T12:36:28.873Z,99163.75
2023-01-28T12:39:12.723Z,99174.03
2023-01-28T12:41:45.352Z,99167.81
2023-01-28T12:44:20.303Z,99169.06
2023-01-28T12:47:04.318Z,99164.75
2023-01-28T12:49:39.960Z,99163.22
2023-01-28T12:52:15.342Z,99161.06
2023-01-28T12:54:53.907Z,99156.16
2023-01-28T12:57:26.941Z,99155.56
2023-01-28T13:00:07.172Z,99154.66
2023-01-28T13:02:39.618Z,99159.47
2023-01-28T13:05:14.914Z,99151.47
2023-01-28T13:07:49.020Z,99161.69
2023-01-28T13:10:28.260Z,99153.00
2023-01-28T13:12:56.160Z,99161.28
2023-01-28T13:15:23.137Z,99154.28
2023-01-28T13:18:00.863Z,99159.06
2023-01-28T13:20:48.594Z,99153.31
2023-01-28T13:23:25.704Z,99154.31
2023-01-28T13:25:53.993Z,99158.06
2023-01-28T13:28:28.650Z,99158.06
2023-01-28T13:31:02.803Z,99155.78
2023-01-28T13:33:32.983Z,99156.81
2023-01-28T13:36:03.909Z,99157.75
2023-01-28T13:38:30.931Z,99159.78
2023-01-28T13:41:06.301Z,99157.53
2023-01-28T13:43:32.798Z,99165.78
2023-01-28T13:46:01.740Z,99170.03
2023-01-28T13:48:33.449Z,99170.56
2023-01-28T13:51:02.177Z,99168.31
2023-01-28T13:53:41.943Z,99169.78
2023-01-28T13:56:18.845Z,99171.56
2023-01-28T13:59:03.289Z,99168.56
2023-01-28T14:01:44.008Z,99169.31
2023-01-28T14:04:19.770Z,99164.00
2023-01-28T14:07:05.206Z,99172.31
2023-01-28T14:09:47.052Z,99177.81
2023-01-28T14:12:28.160Z,99175.56
2023-01-28T14:15:25.600Z,99187.59
2023-01-28T14:17:54.955Z,99182.31
2023-01-28T14:20:44.205Z,99188.25
2023-01-28T14:23:22.218Z,99185.50
2023-01-28T14:26:08.440Z,99198.72
2023-01-28T14:28:37.989Z,99204.63
2023-01-28T14:31:37.211Z,99198.03
2023-01-28T14:34:14.525Z,99196.72
2023-01-28T14:36:43.705Z,99200.53
2023-01-28T14:39:16.120Z,99202.97
2023-01-28T14:41:44.358Z,99212.47
2023-01-28T14:44:16.009Z,99210.00
2023-01-28T14:46:55.184Z,99208.97
2023-01-28T14:49:59.025Z,99210.94
2023-01-28T14:52:50.041Z,99212.75
2023-01-28T14:55:36.767Z,99217.75
2023-01-28T14:58:05.968Z,99219.13
2023-01-28T15:00:34.062Z,99220.53
2023-01-28T15:03:05.995Z,99222.69
2023-01-28T15:05:34.076Z,99221.16
2023-01-28T15:08:00.690Z,99226.06
2023-01-28T15:10:31.634Z,99228.94
2023-01-28T15:13:03.812Z,99228.22
2023-01-28T15:15:35.585Z,99236.00
2023-01-28T15:18:21.380Z,99230.66
2023-01-28T15:20:50.742Z,99232.69
2023-01-28T15:23:20.475Z,99243.13
2023-01-28T15:25:47.131Z,99235.56
2023-01-28T15:28:31.791Z,99254.28
2023-01-28T15:30:59.736Z,99246.50
2023-01-28T15:33:26.950Z,99252.53
2023-01-28T15:35:57.754Z,99249.31
2023-01-28T15:38:27.330Z,99249.44
2023-01-28T15:41:01.969Z,99249.47
2023-01-28T15:43:30.614Z,99258.47
2023-01-28T15:45:58.249Z,99254.69
2023-01-28T15:48:27.326Z,99264.88
2023-01-28T15:51:04.294Z,99261.78
2023-01-28T15:53:36.554Z,99255.28
2023-01-28T15:56:07.963Z,99262.00
2023-01-28T15:58:41.200Z,99255.78
2023-01-28T16:01:10.489Z,99263.38
2023-01-28T16:03:41.644Z,99266.66
2023-01-28T16:06:10.661Z,99265.78
2023-01-28T16:08:41.333Z,99273.66
2023-01-28T16:11:09.624Z,99284.88
2023-01-28T16:13:36.682Z,99279.41
2023-01-28T16:16:04.287Z,99278.19
2023-01-28T16:18:39.479Z,99281.81
2023-01-28T16:21:10.334Z,99292.13
2023-01-28T16:23:39.468Z,99275.63
2023-01-28T16:26:21.504Z,99287.81
2023-01-28T16:28:48.092Z,99287.25
2023-01-28T16:31:15.114Z,99287.09
2023-01-28T16:33:41.792Z,99290.63
2023-01-28T16:36:13.598Z,99296.94
2023-01-28T16:38:40.947Z,99288.84
2023-01-28T16:41:43.624Z,99287.50
2023-01-28T16:44:14.589Z,99301.47
2023-01-28T16:46:41.384Z,99298.41
2023-01-28T16:49:07.978Z,99289.91
2023-01-28T16:51:35.307Z,99293.06
2023-01-28T16:54:02.879Z,99288.25
2023-01-28T16:56:44.517Z,99283.50
2023-01-28T16:59:12.679Z,99281.22
2023-01-28T17:01:39.603Z,99280.41
2023-01-28T17:04:11.492Z,99290.72
2023-01-28T17:06:39.700Z,99292.69
2023-01-28T17:09:06.339Z,99291.19
2023-01-28T17:11:33.585Z,99293.59
2023-01-28T17:14:00.865Z,99292.06
2023-01-28T17:16:29.791Z,99283.84
2023-01-28T17:18:56.810Z,99286.69
2023-01-28T17:21:23.421Z,99291.53
2023-01-28T17:23:52.855Z,99301.13
2023-01-28T17:26:19.863Z,99295.31
2023-01-28T17:28:52.775Z,99294.00
2023-01-28T17:31:22.496Z,99299.34
2023-01-28T17:33:53.646Z,99294.72
2023-01-28T17:36:20.142Z,99299.22
2023-01-28T17:38:46.880Z,99296.28
2023-01-28T17:41:14.282Z,99312.81
2023-01-28T17:43:42.614Z,99311.44
2023-01-28T17:46:14.792Z,99313.66
2023-01-28T17:48:41.456Z,99321.44
2023-01-28T17:51:10.273Z,99324.97
2023-01-28T17:53:36.770Z,99320.72
2023-01-28T17:56:03.342Z,99322.75
2023-01-28T17:58:29.907Z,99322.47
2023-01-28T18:00:56.827Z,99323.19
2023-01-28T18:03:25.581Z,99324.97
2023-01-28T18:05:59.199Z,99329.88
2023-01-28T18:08:26.143Z,99337.22
2023-01-28T18:10:53.188Z,99327.69
2023-01-28T18:13:19.903Z,99323.41
2023-01-28T18:15:46.384Z,99327.72
2023-01-28T18:18:12.904Z,99329.84
2023-01-28T18:20:39.410Z,99324.44
2023-01-28T18:23:05.957Z,99328.97
2023-01-28T18:25:32.562Z,99341.25
2023-01-28T18:27:59.066Z,99329.00
2023-01-28T18:30:25.543Z,99319.75
2023-01-28T18:32:52.048Z,99329.72
2023-01-28T18:35:18.922Z,99334.41
2023-01-28T18:37:45.657Z,99340.06
2023-01-28T18:40:12.577Z,99340.75
2023-01-28T18:42:39.175Z,99334.75
2023-01-28T18:45:06.336Z,99343.78
2023-01-28T18:47:32.933Z,99352.06
2023-01-28T18:49:59.432Z,99343.97
2023-01-28T18:52:27.471Z,99352.03
2023-01-28T18:54:54.309Z,99367.78
2023-01-28T18:57:20.799Z,99359.28
2023-01-28T18:59:47.393Z,99355.28
2023-01-28T19:02:14.722Z,99357.50
2023-01-28T19:04:41.248Z,99368.59
2023-01-28T19:07:11.450Z,99367.78
2023-01-28T19:09:38.514Z,99372.03
2023-01-28T19:12:05.519Z,99364.31
2023-01-28T19:14:32.254Z,99367.69
2023-01-28T19:16:58.880Z,99367.53
2023-01-28T19:19:25.607Z,99357.97
2023-01-28T19:21:53.700Z,99361.72
2023-01-28T19:24:20.437Z,99367.78
2023-01-28T19:26:47.214Z,99364.88
2023-01-28T19:29:16.234Z,99362.47
2023-01-28T19:31:44.185Z,99365.28
2023-01-28T19:34:10.862Z,99367.75
2023-01-28T19:36:37.711Z,99365.28
2023-01-28T19:39:07.103Z,99363.59
2023-01-28T19:41:34.270Z,99377.19
2023-01-28T19:44:01.161Z,99370.53
2023-01-28T19:46:28.573Z,99364.59
2023-01-28T19:48:55.255Z,99368.50
2023-01-28T19:51:22.788Z,99367.06
2023-01-28T19:53:53.668Z,99377.94
2023-01-28T19:56:25.341Z,99366.41
2023-01-28T19:58:54.153Z,99371.59
2023-01-28T20:01:23.778Z,99365.84
2023-01-28T20:03:52.738Z,99368.19
2023-01-28T20:06:19.528Z,99376.44
2023-01-28T20:08:51.336Z,99378.69
2023-01-28T20:11:18.114Z,99383.75
2023-01-28T20:13:47.491Z,99384.59
2023-01-28T20:16:17.792Z,99383.22
2023-01-28T20:18:48.747Z,99383.66
2023-01-28T20:21:15.378Z,99387.28
2023-01-28T20:23:41.950Z,99387.66
2023-01-28T20:26:08.474Z,99392.69
2023-01-28T20:28:35.135Z,99388.72
2023-01-28T20:31:06.684Z,99391.16
2023-01-28T20:33:33.841Z,99398.31
2023-01-28T20:36:05.259Z,99399.72
2023-01-28T20:38:38.380Z,99413.78
2023-01-28T20:41:09.818Z,99418.38
2023-01-28T20:43:37.725Z,99414.63
2023-01-28T20:46:10.104Z,99425.09
2023-01-28T20:48:36.657Z,99433.13
2023-01-28T20:51:06.900Z,99442.34
2023-01-28T20:53:33.598Z,99437.53
2023-01-28T20:56:00.383Z,99433.72
2023-01-28T20:58:27.040Z,99434.38
2023-01-28T21:00:53.590Z,99439.09
2023-01-28T21:03:20.600Z,99426.84
2023-01-28T21:05:47.709Z,99425.25
2023-01-28T21:08:15.342Z,99437.63
2023-01-28T21:10:42.425Z,99441.41
2023-01-28T21:13:09.928Z,99424.78
2023-01-28T21:15:36.732Z,99435.97
2023-01-28T21:18:03.648Z,99445.34
2023-01-28T21:20:31.296Z,99442.50
2023-01-28T21:22:57.880Z,99450.16
2023-01-28T21:25:26.049Z,99437.69
2023-01-28T21:27:54.092Z,99443.00
2023-01-28T21:30:20.751Z,99430.66
2023-01-28T21:32:47.542Z,99437.97
2023-01-28T21:35:14.444Z,99431.94
2023-01-28T21:37:46.023Z,99433.41
2023-01-28T21:40:13.214Z,99439.31
2023-01-28T21:42:41.614Z,99438.09
2023-01-28T21:45:08.724Z,99428.38
2023-01-28T21:47:38.743Z,99426.25
2023-01-28T21:50:06.053Z,99423.16
2023-01-28T21:52:32.560Z,99423.97
2023-01-28T21:54:59.189Z,99428.34
2023-01-28T21:57:25.829Z,99428.09
2023-01-28T21:59:52.428Z,99427.41
2023-01-28T22:02:19.113Z,99423.28
2023-01-28T22:04:46.278Z,99430.06
2023-01-28T22:07:17.236Z,99434.84
2023-01-28T22:09:44.815Z,99422.06
2023-01-28T22:12:14.812Z,99435.06
2023-01-28T22:14:42.678Z,99438.81
2023-01-28T22:17:11.626Z,99432.31
2023-01-28T22:19:38.715Z,99436.38
2023-01-28T22:22:05.842Z,99436.50
2023-01-28T22:24:32.635Z,99434.25
2023-01-28T22:26:59.628Z,99435.69
2023-01-28T22:29:28.039Z,99437.50
2023-01-28T22:31:55.236Z,99429.41
2023-01-28T22:34:22.429Z,99432.69
2023-01-28T22:36:49.486Z,99425.59
2023-01-28T22:39:16.706Z,99427.75
2023-01-28T22:41:44.697Z,99435.88
2023-01-28T22:44:11.107Z,99430.53
2023-01-28T22:46:37.886Z,99430.38
2023-01-28T22:49:05.306Z,99423.31
2023-01-28T22:51:32.803Z,99415.91
2023-01-28T22:53:59.247Z,99419.72
2023-01-28T22:56:26.158Z,99434.75
2023-01-28T22:58:56.866Z,99427.75
2023-01-28T23:01:23.615Z,99434.53
2023-01-28T23:03:50.401Z,99431.31
2023-01-28T23:06:17.877Z,99417.63
2023-01-28T23:08:45.036Z,99419.44
2023-01-28T23:11:25.276Z,99437.31
2023-01-28T23:14:10.860Z,99433.13
2023-01-28T23:16:57.167Z,99435.19
2023-01-28T23:19:42.502Z,99432.59
2023-01-28T23:22:34.600Z,99436.41
2023-01-28T23:25:01.166Z,99429.03
2023-01-28T23:27:27.758Z,99428.25
2023-01-28T23:29:54.276Z,99426.50
2023-01-28T23:32:21.313Z,99429.03
2023-01-28T23:34:47.736Z,99419.25
2023-01-28T23:37:14.577Z,99416.13
2023-01-28T23:39:42.107Z,99422.72
2023-01-28T23:42:20.872Z,99423.69
2023-01-28T23:44:47.780Z,99424.78
2023-01-28T23:47:14.453Z,99419.09
2023-01-28T23:49:41.208Z,99408.13
2023-01-28T23:52:08.331Z,99406.31
2023-01-28T23:54:34.901Z,99404.34
2023-01-28T23:57:01.738Z,99407.63
2023-01-28T23:59:28.433Z,99397.59
